Time;durP1;ratioP1;P1;durP2;ratioP2;P2;SDS_P1;SDS_P2;PMS_P1;PMS_P2;Temp;Humidity;BMP_temperature;BMP_pressure;BME280_temperature;BME280_humidity;BME280_pressure;Samples;Min_cycle;Max_cycle;Signal;HPM_P1;HPM_P2
2022/12/08 00:01:07;;;;;;;10.00;2.25;;;3.10;99.90;;;;;;5070892;28;20086;-75
2022/12/08 00:03:33;;;;;;;5.57;1.98;;;3.10;99.90;;;;;;5052448;28;20119;-75
2022/12/08 00:11:31;;;;;;;6.93;2.00;;;3.10;99.90;;;;;;5060841;28;19920;-75
2022/12/08 00:13:57;;;;;;;7.22;1.90;;;3.10;99.90;;;;;;5054404;28;20063;-75
2022/12/08 00:16:23;;;;;;;8.88;2.15;;;3.10;99.90;;;;;;5056991;28;20052;-75
2022/12/08 00:18:48;;;;;;;7.07;1.83;;;3.20;99.90;;;;;;5056023;28;20052;-75
2022/12/08 00:21:14;;;;;;;4.78;2.03;;;3.10;99.90;;;;;;5070250;28;20037;-75
2022/12/08 00:23:40;;;;;;;6.90;1.70;;;3.20;99.90;;;;;;5057843;28;20040;-75
2022/12/08 00:26:06;;;;;;;8.60;1.90;;;3.20;99.90;;;;;;5052373;28;20037;-75
2022/12/08 00:28:33;;;;;;;5.95;1.65;;;3.20;99.90;;;;;;5054692;28;20190;-75
2022/12/08 00:30:59;;;;;;;7.40;2.00;;;3.20;99.90;;;;;;5051688;28;20092;-75
2022/12/08 00:33:27;;;;;;;10.63;3.08;;;3.20;99.90;;;;;;5053530;28;20054;-75
2022/12/08 00:35:52;;;;;;;5.35;1.95;;;3.30;99.90;;;;;;5053970;28;20048;-75
2022/12/08 00:38:18;;;;;;;10.23;2.75;;;3.20;99.90;;;;;;5067454;28;20060;-75
2022/12/08 00:40:45;;;;;;;6.38;2.40;;;3.30;99.90;;;;;;5054429;28;20041;-75
2022/12/08 00:43:11;;;;;;;10.57;2.35;;;3.20;99.90;;;;;;5055371;28;20051;-75
2022/12/08 00:45:36;;;;;;;6.45;2.20;;;3.20;99.90;;;;;;5058932;28;20049;-75
2022/12/08 00:48:02;;;;;;;8.23;2.30;;;3.20;99.90;;;;;;5064743;28;20037;-74
2022/12/08 00:50:28;;;;;;;5.60;2.00;;;3.20;99.90;;;;;;5046487;28;20480;-75
2022/12/08 00:52:53;;;;;;;6.40;2.08;;;3.20;99.90;;;;;;5058781;28;20045;-75
2022/12/08 00:55:19;;;;;;;5.00;2.30;;;3.20;99.90;;;;;;5076312;28;20076;-76
2022/12/08 00:57:45;;;;;;;5.18;1.98;;;3.20;99.90;;;;;;5055188;28;20183;-74
2022/12/08 01:00:11;;;;;;;6.68;2.17;;;3.20;99.90;;;;;;5065969;28;20068;-75
2022/12/08 01:02:36;;;;;;;7.07;2.30;;;3.20;99.90;;;;;;5075968;28;20045;-74
2022/12/08 01:05:02;;;;;;;6.68;2.30;;;3.20;99.90;;;;;;5060421;28;20063;-75
2022/12/08 01:07:28;;;;;;;6.63;1.90;;;3.20;99.90;;;;;;5065211;28;20029;-75
2022/12/08 01:09:54;;;;;;;7.63;2.47;;;3.10;99.90;;;;;;5056092;28;20040;-75
2022/12/08 01:12:19;;;;;;;8.32;2.75;;;3.20;99.90;;;;;;5060190;28;20483;-75
2022/12/08 01:14:45;;;;;;;9.68;2.55;;;3.20;99.90;;;;;;5072755;28;20032;-75
2022/12/08 01:17:10;;;;;;;6.80;2.92;;;3.10;99.90;;;;;;5050098;28;20097;-74
2022/12/08 01:19:36;;;;;;;7.50;3.00;;;3.10;99.90;;;;;;5056125;28;20040;-74
2022/12/08 01:22:02;;;;;;;10.73;3.47;;;3.10;99.90;;;;;;5059299;28;20144;-75
2022/12/08 01:24:27;;;;;;;8.30;2.67;;;3.10;99.90;;;;;;5054025;28;20044;-75
2022/12/08 01:26:53;;;;;;;6.22;2.65;;;3.10;99.90;;;;;;5088947;28;20115;-74
2022/12/08 01:29:19;;;;;;;9.05;3.25;;;3.10;99.90;;;;;;5060896;28;20083;-75
2022/12/08 01:31:45;;;;;;;7.07;3.00;;;3.10;99.90;;;;;;5090096;28;20089;-75
2022/12/08 01:34:11;;;;;;;6.25;3.10;;;3.10;99.90;;;;;;5053197;28;20447;-74
2022/12/08 01:36:37;;;;;;;8.65;3.47;;;3.10;99.90;;;;;;5057763;28;20556;-74
2022/12/08 01:39:06;;;;;;;11.60;3.80;;;3.10;99.90;;;;;;5057198;28;20063;-75
2022/12/08 01:41:33;;;;;;;9.30;4.22;;;3.00;99.90;;;;;;5059278;28;20044;-74
2022/12/08 01:44:09;;;;;;;6.45;3.65;;;3.00;99.90;;;;;;5054832;28;20055;-75
2022/12/08 01:46:38;;;;;;;8.80;3.67;;;3.00;99.90;;;;;;5059394;28;20496;-75
2022/12/08 01:49:14;;;;;;;7.53;3.92;;;3.00;99.90;;;;;;5092205;28;20052;-75
2022/12/08 01:52:18;;;;;;;6.88;3.92;;;3.00;99.90;;;;;;5067641;28;20116;-75
2022/12/08 01:54:53;;;;;;;7.18;4.07;;;3.00;99.90;;;;;;5046421;28;20049;-75
2022/12/08 01:57:32;;;;;;;8.27;4.88;;;3.00;99.90;;;;;;5063276;28;20584;-75
2022/12/08 02:00:11;;;;;;;11.13;4.60;;;3.00;99.90;;;;;;5056790;28;20040;-75
2022/12/08 02:02:53;;;;;;;10.98;4.70;;;3.00;99.90;;;;;;5070414;28;20036;-74
2022/12/08 02:05:22;;;;;;;11.32;4.93;;;3.00;99.90;;;;;;5064309;28;20051;-75
2022/12/08 02:07:49;;;;;;;10.55;5.20;;;2.90;99.90;;;;;;5060891;28;20109;-75
2022/12/08 02:10:21;;;;;;;10.60;5.50;;;2.90;99.90;;;;;;5065630;28;20036;-75
2022/12/08 02:12:50;;;;;;;8.18;5.10;;;2.90;99.90;;;;;;5076106;28;20047;-75
2022/12/08 02:15:16;;;;;;;10.10;5.00;;;3.00;99.90;;;;;;5052790;28;20602;-75
2022/12/08 02:18:10;;;;;;;12.70;5.13;;;3.00;99.90;;;;;;5062511;28;20056;-74
2022/12/08 02:21:04;;;;;;;11.48;5.22;;;3.00;99.90;;;;;;5061946;28;20086;-75
2022/12/08 02:23:49;;;;;;;10.68;5.25;;;3.00;99.90;;;;;;5055369;28;20045;-75
2022/12/08 02:26:33;;;;;;;13.10;6.53;;;3.00;99.90;;;;;;5065356;28;20037;-74
2022/12/08 02:29:33;;;;;;;9.75;5.43;;;3.00;99.90;;;;;;5062311;28;20701;-75
2022/12/08 02:32:44;;;;;;;11.02;6.40;;;3.00;99.90;;;;;;5056215;28;20045;-75
2022/12/08 02:35:19;;;;;;;11.57;6.38;;;3.00;99.90;;;;;;5032988;28;20139;-75
2022/12/08 02:37:45;;;;;;;10.60;6.30;;;3.10;99.90;;;;;;5054847;28;20068;-74
2022/12/08 02:40:23;;;;;;;11.25;6.70;;;3.10;99.90;;;;;;5059580;28;20076;-75
2022/12/08 02:43:11;;;;;;;12.00;6.65;;;3.10;99.90;;;;;;5054430;28;20140;-75
2022/12/08 02:45:49;;;;;;;14.13;6.63;;;3.10;99.90;;;;;;5054583;28;20098;-75
2022/12/08 02:48:15;;;;;;;13.80;6.32;;;3.20;99.90;;;;;;5055814;28;20163;-75
2022/12/08 02:50:41;;;;;;;12.85;7.10;;;3.10;99.90;;;;;;5053108;28;20304;-75
2022/12/08 02:53:07;;;;;;;11.68;6.68;;;3.20;99.90;;;;;;5055315;28;20056;-75
2022/12/08 02:55:44;;;;;;;10.90;6.40;;;3.20;99.90;;;;;;5092973;28;20044;-75
2022/12/08 02:58:13;;;;;;;;;;;3.20;99.90;;;;;;5058279;28;20086;-74
2022/12/08 03:00:56;;;;;;;11.13;6.18;;;3.20;99.90;;;;;;5056424;28;20394;-75
2022/12/08 03:03:52;;;;;;;13.68;6.85;;;3.20;99.90;;;;;;5089034;28;20041;-75
2022/12/08 03:06:34;;;;;;;10.90;6.37;;;3.20;99.90;;;;;;5064048;28;20089;-75
2022/12/08 03:09:14;;;;;;;11.52;6.47;;;3.20;99.90;;;;;;5067001;28;20045;-75
2022/12/08 03:12:17;;;;;;;11.27;6.45;;;3.20;99.90;;;;;;5060751;28;20121;-75
2022/12/08 03:14:46;;;;;;;14.10;6.70;;;3.30;99.90;;;;;;5059316;28;20056;-75
2022/12/08 03:17:13;;;;;;;12.48;7.10;;;3.30;99.90;;;;;;5055270;28;20177;-75
2022/12/08 03:19:42;;;;;;;15.15;7.40;;;3.30;99.90;;;;;;5057036;28;20036;-74
2022/12/08 03:22:10;;;;;;;13.45;7.65;;;3.30;99.90;;;;;;5065910;28;20062;-75
2022/12/08 03:24:38;;;;;;;16.35;8.32;;;3.30;99.90;;;;;;5053740;28;20117;-75
2022/12/08 03:27:15;;;;;;;14.88;8.88;;;3.30;99.90;;;;;;5068362;28;20071;-75
2022/12/08 03:29:41;;;;;;;14.52;8.48;;;3.30;99.90;;;;;;5057619;28;21014;-75
2022/12/08 03:32:22;;;;;;;13.00;9.20;;;3.30;99.90;;;;;;5056297;28;20114;-75
2022/12/08 03:34:50;;;;;;;13.55;8.40;;;3.30;99.90;;;;;;5057723;28;20045;-75
2022/12/08 03:37:16;;;;;;;12.88;8.82;;;3.30;99.90;;;;;;5098450;28;20483;-75
2022/12/08 03:39:42;;;;;;;16.25;9.40;;;3.30;99.90;;;;;;5057668;28;20041;-75
2022/12/08 03:42:08;;;;;;;12.93;9.20;;;3.30;99.90;;;;;;5062715;28;20408;-75
2022/12/08 03:44:33;;;;;;;10.55;8.95;;;3.40;99.90;;;;;;5064001;28;20105;-75
2022/12/08 03:46:59;;;;;;;14.57;9.50;;;3.30;99.90;;;;;;5057104;28;20098;-75
2022/12/08 03:49:25;;;;;;;13.25;9.77;;;3.30;99.90;;;;;;5068476;28;20654;-75
2022/12/08 03:51:50;;;;;;;14.88;9.52;;;3.30;99.90;;;;;;5062473;28;20140;-75
2022/12/08 03:54:16;;;;;;;14.02;9.95;;;3.30;99.90;;;;;;5057105;28;20037;-75
2022/12/08 03:56:42;;;;;;;13.60;9.20;;;3.30;99.90;;;;;;5056912;28;20036;-75
2022/12/08 03:59:09;;;;;;;14.68;9.52;;;3.30;99.90;;;;;;5062990;28;20057;-75
2022/12/08 04:01:34;;;;;;;10.85;8.93;;;3.30;99.90;;;;;;5059158;28;20044;-75
2022/12/08 04:04:00;;;;;;;11.35;8.88;;;3.30;99.90;;;;;;5054074;28;20051;-75
2022/12/08 04:06:25;;;;;;;13.35;9.27;;;3.30;99.90;;;;;;5055777;28;20037;-75
2022/12/08 04:08:51;;;;;;;12.23;9.35;;;3.30;99.90;;;;;;5058298;28;20036;-75
2022/12/08 04:11:17;;;;;;;14.35;9.35;;;3.30;99.90;;;;;;5050163;28;20564;-75
2022/12/08 04:13:44;;;;;;;11.80;8.98;;;3.30;99.90;;;;;;5048119;28;20111;-74
2022/12/08 04:16:22;;;;;;;13.45;9.13;;;3.30;99.90;;;;;;5052540;28;20124;-74
2022/12/08 04:18:48;;;;;;;11.57;9.07;;;3.30;99.90;;;;;;5059795;28;20048;-73
2022/12/08 04:21:14;;;;;;;12.27;9.60;;;3.30;99.90;;;;;;5057657;28;20044;-73
2022/12/08 04:23:40;;;;;;;14.23;9.65;;;3.30;99.90;;;;;;5056906;28;20468;-74
2022/12/08 04:26:05;;;;;;;12.98;9.35;;;3.30;99.90;;;;;;5064787;28;20048;-74
2022/12/08 04:28:31;;;;;;;15.60;8.90;;;3.30;99.90;;;;;;5046093;28;20471;-74
2022/12/08 04:30:57;;;;;;;13.43;9.40;;;3.30;99.90;;;;;;5069103;28;20052;-72
2022/12/08 04:33:23;;;;;;;18.20;10.13;;;3.30;99.90;;;;;;5059194;28;21009;-72
2022/12/08 04:35:48;;;;;;;12.80;9.25;;;3.40;99.90;;;;;;5088513;28;20083;-74
2022/12/08 04:38:14;;;;;;;13.75;9.73;;;3.40;99.90;;;;;;5067955;28;20452;-73
2022/12/08 04:40:40;;;;;;;14.43;9.82;;;3.40;99.90;;;;;;5054711;28;20079;-74
2022/12/08 04:43:05;;;;;;;12.20;10.02;;;3.40;99.90;;;;;;5048232;28;20043;-74
2022/12/08 04:45:32;;;;;;;14.48;9.98;;;3.40;99.90;;;;;;5054064;28;20147;-74
2022/12/08 04:47:59;;;;;;;17.05;10.70;;;3.40;99.90;;;;;;5051706;28;20083;-74
2022/12/08 04:50:25;;;;;;;14.18;10.63;;;3.40;99.90;;;;;;5059515;28;20392;-73
2022/12/08 04:52:50;;;;;;;13.55;10.40;;;3.40;99.90;;;;;;5059168;28;20044;-73
2022/12/08 04:55:16;;;;;;;15.18;11.00;;;3.40;99.90;;;;;;5052214;28;20124;-73
2022/12/08 04:57:42;;;;;;;15.52;10.70;;;3.40;99.90;;;;;;5059849;28;20140;-74
2022/12/08 05:00:08;;;;;;;15.90;11.52;;;3.40;99.90;;;;;;5060275;28;20068;-73
2022/12/08 05:02:34;;;;;;;16.30;11.77;;;3.40;99.90;;;;;;5053468;28;20036;-73
2022/12/08 05:04:59;;;;;;;16.35;12.05;;;3.40;99.90;;;;;;5065857;28;20037;-74
2022/12/08 05:07:25;;;;;;;15.70;11.63;;;3.40;99.90;;;;;;5061236;28;20119;-73
2022/12/08 05:09:51;;;;;;;15.15;10.85;;;3.40;99.90;;;;;;5056180;28;20040;-74
2022/12/08 05:12:16;;;;;;;13.93;11.35;;;3.50;99.90;;;;;;5053870;28;20661;-73
2022/12/08 05:14:42;;;;;;;14.07;10.75;;;3.50;99.90;;;;;;5060100;28;20094;-74
2022/12/08 05:17:07;;;;;;;14.63;10.10;;;3.50;99.90;;;;;;5055449;28;20484;-74
2022/12/08 05:19:33;;;;;;;14.90;10.85;;;3.50;99.90;;;;;;5062329;28;20128;-73
2022/12/08 05:21:59;;;;;;;14.52;10.68;;;3.50;99.90;;;;;;5059309;28;20527;-73
2022/12/08 05:24:24;;;;;;;18.85;11.50;;;3.50;99.90;;;;;;5058259;28;20087;-74
2022/12/08 05:26:50;;;;;;;13.85;10.55;;;3.50;99.90;;;;;;5069055;28;20479;-74
2022/12/08 05:29:16;;;;;;;15.02;11.20;;;3.60;99.90;;;;;;5088959;28;20055;-74
2022/12/08 05:31:41;;;;;;;14.52;10.50;;;3.50;99.90;;;;;;5055730;28;20044;-74
2022/12/08 05:34:07;;;;;;;13.30;9.68;;;3.50;99.90;;;;;;5069851;28;20052;-74
2022/12/08 05:36:32;;;;;;;16.27;11.20;;;3.60;99.90;;;;;;5062104;28;20044;-73
2022/12/08 05:38:58;;;;;;;15.15;10.52;;;3.50;99.90;;;;;;5058476;28;20041;-74
2022/12/08 05:41:24;;;;;;;11.73;9.82;;;3.60;99.90;;;;;;5069883;28;20100;-73
2022/12/08 05:43:49;;;;;;;13.77;10.45;;;3.50;99.90;;;;;;5052308;28;20094;-73
2022/12/08 05:46:16;;;;;;;12.15;9.50;;;3.60;99.90;;;;;;5051318;28;20519;-73
2022/12/08 05:48:41;;;;;;;13.13;9.65;;;3.50;99.90;;;;;;5054269;28;20060;-74
2022/12/08 05:51:19;;;;;;;11.32;8.68;;;3.60;99.90;;;;;;5061944;28;20040;-74
2022/12/08 05:53:45;;;;;;;10.93;8.25;;;3.60;99.90;;;;;;5059962;28;20033;-74
2022/12/08 05:56:11;;;;;;;12.93;8.20;;;3.60;99.90;;;;;;5064437;28;20119;-73
2022/12/08 05:58:36;;;;;;;10.57;7.93;;;3.60;99.90;;;;;;5065978;28;20140;-73
2022/12/08 06:01:02;;;;;;;9.95;7.45;;;3.60;99.90;;;;;;5055699;28;20041;-73
2022/12/08 06:03:28;;;;;;;8.55;7.00;;;3.60;99.90;;;;;;5057935;28;20044;-73
2022/12/08 06:05:53;;;;;;;11.18;7.15;;;3.60;99.90;;;;;;5056767;28;20693;-73
2022/12/08 06:08:19;;;;;;;9.68;7.00;;;3.60;99.90;;;;;;5054374;28;20479;-74
2022/12/08 06:10:45;;;;;;;10.25;7.53;;;3.60;99.90;;;;;;5060307;28;20074;-74
2022/12/08 06:13:12;;;;;;;10.75;8.00;;;3.60;99.90;;;;;;5051119;28;20047;-73
2022/12/08 06:15:39;;;;;;;11.15;7.97;;;3.60;99.90;;;;;;5059803;28;20088;-73
2022/12/08 06:18:06;;;;;;;10.60;7.10;;;3.60;99.90;;;;;;5058476;28;20555;-73
2022/12/08 06:20:32;;;;;;;10.20;8.23;;;3.60;99.90;;;;;;5060527;28;20041;-73
2022/12/08 06:22:57;;;;;;;10.55;7.57;;;3.60;99.90;;;;;;5055569;28;20468;-73
2022/12/08 06:25:24;;;;;;;11.00;8.00;;;3.60;99.90;;;;;;5070168;28;20053;-73
2022/12/08 06:27:50;;;;;;;10.55;8.02;;;3.60;99.90;;;;;;5058923;28;20055;-74
2022/12/08 06:30:16;;;;;;;13.57;8.02;;;3.60;99.90;;;;;;5058922;28;20048;-73
2022/12/08 06:32:42;;;;;;;10.05;8.02;;;3.60;99.90;;;;;;5056084;28;20044;-74
2022/12/08 06:35:08;;;;;;;11.63;7.70;;;3.60;99.90;;;;;;5059844;28;20048;-74
2022/12/08 06:37:34;;;;;;;11.48;7.88;;;3.50;99.90;;;;;;5059159;28;20163;-74
2022/12/08 06:40:00;;;;;;;10.40;7.93;;;3.60;99.90;;;;;;5067194;28;20163;-75
2022/12/08 06:42:45;;;;;;;9.65;7.60;;;3.60;99.90;;;;;;5060575;28;20096;-80
2022/12/08 06:45:15;;;;;;;9.18;7.85;;;3.50;99.90;;;;;;5056212;28;20051;-76
2022/12/08 06:47:41;;;;;;;11.43;7.30;;;3.60;99.90;;;;;;5061921;28;20049;-75
2022/12/08 06:50:08;;;;;;;10.50;7.75;;;3.60;99.90;;;;;;5060832;28;20052;-75
2022/12/08 06:52:34;;;;;;;;;;;3.50;99.90;;;;;;5056849;28;20076;-75
2022/12/08 06:55:00;;;;;;;9.52;7.57;;;3.50;99.90;;;;;;5056594;28;20382;-75
2022/12/08 06:57:26;;;;;;;12.18;8.02;;;3.50;99.90;;;;;;5061084;28;20086;-73
2022/12/08 06:59:55;;;;;;;11.25;7.78;;;3.50;99.90;;;;;;5069146;28;20447;-75
2022/12/08 07:02:20;;;;;;;12.13;8.00;;;3.50;99.90;;;;;;5069207;28;20080;-74
2022/12/08 07:04:46;;;;;;;11.80;7.60;;;3.50;99.90;;;;;;5061707;28;20479;-74
2022/12/08 07:07:12;;;;;;;10.48;6.68;;;3.50;99.90;;;;;;5056028;28;20036;-74
2022/12/08 07:09:38;;;;;;;6.90;5.38;;;3.50;99.90;;;;;;5058901;28;20514;-75
2022/12/08 07:12:04;;;;;;;8.50;5.95;;;3.50;99.90;;;;;;5062458;28;20037;-74
2022/12/08 07:14:29;;;;;;;10.30;5.93;;;3.50;99.90;;;;;;5063956;28;20044;-75
2022/12/08 07:16:55;;;;;;;7.65;6.32;;;3.50;99.90;;;;;;5061619;28;20733;-75
2022/12/08 07:19:21;;;;;;;8.80;6.05;;;3.50;99.90;;;;;;5055522;28;20049;-75
2022/12/08 07:21:47;;;;;;;8.20;6.80;;;3.50;99.90;;;;;;5059138;28;20037;-74
2022/12/08 07:24:13;;;;;;;8.23;6.68;;;3.50;99.90;;;;;;5061905;28;20063;-74
2022/12/08 07:26:39;;;;;;;8.65;6.70;;;3.50;99.90;;;;;;5078058;28;20123;-75
2022/12/08 07:29:06;;;;;;;9.13;7.03;;;3.50;99.90;;;;;;5057323;28;20117;-74
2022/12/08 07:31:32;;;;;;;9.38;7.65;;;3.50;99.90;;;;;;5055100;28;20086;-75
2022/12/08 07:33:57;;;;;;;10.35;7.22;;;3.50;99.90;;;;;;5063351;28;20045;-75
2022/12/08 07:36:23;;;;;;;10.02;7.43;;;3.50;99.90;;;;;;5066023;28;20056;-75
2022/12/08 07:38:52;;;;;;;11.52;7.38;;;3.50;99.90;;;;;;5059543;28;20487;-75
2022/12/08 07:41:20;;;;;;;11.00;7.25;;;3.50;99.90;;;;;;5064291;28;20044;-75
2022/12/08 07:43:46;;;;;;;11.90;7.82;;;3.50;99.90;;;;;;5054958;28;20048;-75
2022/12/08 07:46:13;;;;;;;10.50;7.15;;;3.50;99.90;;;;;;5051949;28;20044;-75
2022/12/08 07:48:39;;;;;;;12.38;6.70;;;3.50;99.90;;;;;;5063356;28;20033;-75
2022/12/08 07:51:05;;;;;;;9.52;6.70;;;3.40;99.90;;;;;;5063038;28;20557;-75
2022/12/08 07:53:31;;;;;;;8.32;6.05;;;3.40;99.90;;;;;;5072937;28;20044;-75
2022/12/08 07:55:58;;;;;;;8.88;5.78;;;3.40;99.90;;;;;;5051133;28;20053;-75
2022/12/08 07:58:24;;;;;;;9.43;5.47;;;3.40;99.90;;;;;;5056431;28;20063;-75
2022/12/08 08:00:50;;;;;;;9.13;5.47;;;3.30;99.90;;;;;;5064991;28;20142;-75
2022/12/08 08:03:16;;;;;;;8.27;5.03;;;3.30;99.90;;;;;;5054377;28;20089;-75
2022/12/08 08:05:43;;;;;;;7.30;4.80;;;3.30;99.90;;;;;;5060627;28;20048;-75
2022/12/08 08:08:09;;;;;;;7.57;4.50;;;3.30;99.90;;;;;;5055363;28;20122;-78
2022/12/08 08:10:35;;;;;;;6.47;4.20;;;3.30;99.90;;;;;;5063360;28;20056;-79
2022/12/08 08:13:01;;;;;;;6.95;4.20;;;3.30;99.90;;;;;;5056796;28;20114;-82
2022/12/08 08:15:26;;;;;;;6.28;4.05;;;3.30;99.90;;;;;;5053889;28;20044;-82
2022/12/08 08:17:52;;;;;;;5.70;3.40;;;3.30;99.90;;;;;;5055502;28;20048;-82
2022/12/08 08:20:19;;;;;;;5.95;3.00;;;3.30;99.90;;;;;;5062991;28;20119;-82
2022/12/08 08:22:46;;;;;;;3.90;2.50;;;3.30;99.90;;;;;;5065305;28;20040;-83
2022/12/08 08:25:13;;;;;;;6.10;2.30;;;3.30;99.90;;;;;;5058870;28;20043;-84
2022/12/08 08:27:39;;;;;;;3.78;2.20;;;3.30;99.90;;;;;;5059130;28;20089;-81
2022/12/08 08:30:10;;;;;;;4.45;2.40;;;3.20;99.90;;;;;;5080948;28;20060;-80
2022/12/08 08:32:36;;;;;;;5.00;2.25;;;3.20;99.90;;;;;;5080407;28;20102;-78
2022/12/08 08:35:02;;;;;;;4.40;2.58;;;3.20;99.90;;;;;;5048271;28;20094;-79
2022/12/08 08:37:27;;;;;;;5.25;2.20;;;3.20;99.90;;;;;;5073132;28;20052;-82
2022/12/08 08:39:53;;;;;;;5.03;2.35;;;3.20;99.90;;;;;;5059384;28;20442;-78
2022/12/08 08:42:19;;;;;;;9.27;3.42;;;3.20;99.90;;;;;;5067144;28;20066;-78
2022/12/08 08:44:45;;;;;;;11.52;3.55;;;3.20;99.90;;;;;;5066971;28;20123;-75
2022/12/08 08:47:11;;;;;;;6.40;3.45;;;3.20;99.90;;;;;;5064729;28;20472;-76
2022/12/08 08:49:36;;;;;;;4.78;3.70;;;3.30;99.90;;;;;;5063818;28;20044;-77
2022/12/08 08:52:03;;;;;;;6.38;3.42;;;3.30;99.90;;;;;;5062831;28;20048;-85
2022/12/08 08:54:30;;;;;;;7.32;3.50;;;3.30;99.90;;;;;;5063441;28;20129;-82
2022/12/08 08:56:59;;;;;;;4.60;3.60;;;3.30;99.90;;;;;;5064899;28;20040;-83
2022/12/08 08:59:26;;;;;;;6.97;3.55;;;3.30;99.90;;;;;;5060145;28;20051;-79
2022/12/08 09:01:53;;;;;;;7.72;3.30;;;3.30;99.90;;;;;;5059972;28;20124;-79
2022/12/08 09:04:21;;;;;;;5.78;3.20;;;3.40;99.90;;;;;;5066180;28;20666;-78
2022/12/08 09:06:47;;;;;;;5.82;2.88;;;3.40;99.90;;;;;;5061929;28;20112;-78
2022/12/08 09:09:13;;;;;;;5.68;3.00;;;3.40;99.90;;;;;;5064146;28;20151;-82
2022/12/08 09:11:39;;;;;;;4.53;2.03;;;3.40;99.90;;;;;;5061785;28;20063;-80
2022/12/08 09:14:05;;;;;;;3.55;2.40;;;3.40;99.90;;;;;;5064496;28;20036;-80
2022/12/08 09:16:30;;;;;;;3.13;2.15;;;3.40;99.90;;;;;;5063542;28;20056;-78
2022/12/08 09:18:56;;;;;;;6.80;2.65;;;3.40;99.90;;;;;;5054812;28;20511;-83
2022/12/08 09:21:24;;;;;;;4.00;2.15;;;3.40;99.90;;;;;;5063121;28;20043;-82
2022/12/08 09:23:56;;;;;;;5.32;2.22;;;3.50;99.90;;;;;;5067299;28;20514;-81
2022/12/08 09:26:22;;;;;;;4.75;2.25;;;3.50;99.90;;;;;;5070543;28;20059;-79
2022/12/08 09:28:48;;;;;;;4.18;2.03;;;3.40;99.90;;;;;;5070909;28;20041;-79
2022/12/08 09:31:16;;;;;;;4.67;2.30;;;3.50;99.90;;;;;;5069271;28;20080;-78
2022/12/08 09:33:41;;;;;;;3.35;2.38;;;3.50;99.90;;;;;;5074681;28;20048;-80
2022/12/08 09:36:07;;;;;;;5.47;2.30;;;3.50;99.90;;;;;;5072638;28;20032;-79
2022/12/08 09:38:33;;;;;;;4.78;2.30;;;3.50;99.90;;;;;;5070460;28;20059;-78
2022/12/08 09:41:01;;;;;;;5.28;1.95;;;3.50;99.90;;;;;;5067733;28;20564;-79
2022/12/08 09:43:42;;;;;;;3.92;2.55;;;3.50;99.90;;;;;;5066656;28;20048;-78
2022/12/08 09:46:10;;;;;;;5.28;2.30;;;3.50;99.90;;;;;;5065252;28;20049;-74
2022/12/08 09:48:45;;;;;;;4.80;1.80;;;3.60;99.90;;;;;;5067235;28;20617;-73
2022/12/08 09:51:13;;;;;;;4.35;1.90;;;3.60;99.90;;;;;;5069467;28;20106;-74
2022/12/08 09:53:48;;;;;;;3.58;2.17;;;3.60;99.90;;;;;;5070303;28;20087;-74
2022/12/08 09:56:24;;;;;;;3.08;1.70;;;3.60;99.90;;;;;;5068349;28;20052;-73
2022/12/08 09:58:56;;;;;;;5.95;2.10;;;3.60;99.90;;;;;;5066094;28;20109;-73
2022/12/08 10:01:26;;;;;;;3.33;1.70;;;3.70;99.90;;;;;;5056034;28;20083;-75
2022/12/08 10:03:54;;;;;;;3.17;1.90;;;3.70;99.90;;;;;;5062351;28;20048;-71
2022/12/08 10:06:40;;;;;;;2.17;1.40;;;3.70;99.90;;;;;;5056645;28;20048;-78
2022/12/08 10:09:29;;;;;;;2.67;1.50;;;3.70;99.90;;;;;;5064695;28;20036;-80
2022/12/08 10:12:17;;;;;;;4.70;1.55;;;3.70;99.90;;;;;;5062058;28;20049;-76
2022/12/08 10:14:52;;;;;;;2.53;1.60;;;3.70;99.90;;;;;;5061043;28;20044;-76
2022/12/08 10:17:25;;;;;;;5.47;1.95;;;3.70;99.90;;;;;;5084783;28;20152;-78
2022/12/08 10:19:58;;;;;;;3.22;1.73;;;3.70;99.90;;;;;;5062992;28;20499;-75
2022/12/08 10:22:30;;;;;;;4.60;1.90;;;3.70;99.90;;;;;;5060423;28;20119;-74
2022/12/08 10:25:20;;;;;;;3.15;1.70;;;3.80;99.90;;;;;;5061216;28;20128;-76
2022/12/08 10:27:50;;;;;;;5.75;2.17;;;3.80;99.90;;;;;;5063830;28;20051;-75
2022/12/08 10:30:17;;;;;;;3.63;1.70;;;3.80;99.90;;;;;;5065771;28;20040;-74
2022/12/08 10:32:46;;;;;;;4.53;2.03;;;3.80;99.90;;;;;;5064868;28;20033;-74
2022/12/08 10:35:14;;;;;;;4.18;2.10;;;3.80;99.90;;;;;;5062943;28;20056;-74
2022/12/08 10:37:40;;;;;;;6.70;2.40;;;3.80;99.90;;;;;;5059012;28;20122;-78
2022/12/08 10:40:16;;;;;;;5.80;2.30;;;3.80;99.90;;;;;;5065526;28;20041;-76
2022/12/08 10:42:47;;;;;;;4.32;2.40;;;3.80;99.90;;;;;;5058025;28;20036;-75
2022/12/08 10:45:34;;;;;;;4.75;2.42;;;3.80;99.90;;;;;;5062819;28;20052;-74
2022/12/08 10:48:13;;;;;;;;;;;3.80;99.90;;;;;;5058409;28;20045;-77
2022/12/08 10:50:52;;;;;;;7.30;2.90;;;3.80;99.90;;;;;;5095530;28;19924;-74
2022/12/08 10:53:26;;;;;;;5.35;2.70;;;3.80;99.90;;;;;;5054209;28;20041;-79
2022/12/08 10:56:01;;;;;;;9.95;3.42;;;3.80;99.90;;;;;;5062657;28;20075;-76
2022/12/08 10:58:42;;;;;;;5.90;3.17;;;3.80;99.90;;;;;;5069324;28;20511;-77
2022/12/08 11:01:16;;;;;;;5.75;3.13;;;3.80;99.90;;;;;;5056061;28;20053;-81
2022/12/08 11:03:58;;;;;;;6.32;3.13;;;3.80;99.90;;;;;;5054063;28;20455;-82
2022/12/08 11:06:51;;;;;;;6.93;3.22;;;3.80;99.90;;;;;;5063567;28;20067;-82
2022/12/08 11:09:17;;;;;;;6.60;3.30;;;3.80;99.90;;;;;;5062899;28;20055;-81
2022/12/08 11:12:04;;;;;;;9.30;3.90;;;3.80;99.90;;;;;;5058235;28;20037;-78
2022/12/08 11:14:43;;;;;;;6.45;3.42;;;3.80;99.90;;;;;;5076216;28;20067;-74
2022/12/08 11:17:25;;;;;;;7.32;3.50;;;3.80;99.90;;;;;;5061027;28;20632;-79
2022/12/08 11:20:09;;;;;;;7.28;3.97;;;3.80;99.90;;;;;;5062776;28;20453;-79
2022/12/08 11:22:38;;;;;;;7.63;4.20;;;3.80;99.90;;;;;;5065444;28;20391;-77
2022/12/08 11:25:07;;;;;;;7.65;4.13;;;3.80;99.90;;;;;;5065735;28;20133;-78
2022/12/08 11:27:44;;;;;;;6.65;4.15;;;3.80;99.90;;;;;;5067311;28;20045;-77
2022/12/08 11:30:20;;;;;;;6.38;4.25;;;3.80;99.90;;;;;;5065871;28;20048;-77
2022/12/08 11:32:53;;;;;;;7.50;4.72;;;3.80;99.90;;;;;;5078498;28;20044;-80
2022/12/08 11:35:25;;;;;;;6.85;4.85;;;3.80;99.90;;;;;;5060475;28;20106;-81
2022/12/08 11:37:52;;;;;;;7.72;5.22;;;3.80;99.90;;;;;;5065534;28;20041;-81
2022/12/08 11:40:21;;;;;;;8.27;5.40;;;3.90;99.90;;;;;;5058557;28;20040;-81
2022/12/08 11:42:54;;;;;;;8.63;5.30;;;3.80;99.90;;;;;;5065903;28;20395;-80
2022/12/08 11:45:26;;;;;;;8.80;5.40;;;3.80;99.90;;;;;;5061661;28;20052;-80
2022/12/08 11:48:09;;;;;;;8.95;5.40;;;3.80;99.90;;;;;;5061044;28;20395;-80
2022/12/08 11:50:59;;;;;;;8.32;5.25;;;3.80;99.90;;;;;;5082354;28;20052;-77
2022/12/08 11:53:37;;;;;;;8.48;5.70;;;3.80;99.90;;;;;;5062284;28;20531;-80
2022/12/08 11:56:10;;;;;;;8.75;5.30;;;3.80;99.90;;;;;;5060353;28;20044;-79
2022/12/08 11:58:48;;;;;;;7.20;5.03;;;3.80;99.90;;;;;;5068341;28;20057;-79
2022/12/08 12:01:23;;;;;;;9.32;5.78;;;3.80;99.90;;;;;;5063318;28;20048;-80
2022/12/08 12:04:15;;;;;;;8.80;5.82;;;3.80;99.90;;;;;;5057073;28;20044;-74
2022/12/08 12:07:10;;;;;;;8.85;5.97;;;3.80;99.90;;;;;;5059462;28;20109;-80
2022/12/08 12:09:58;;;;;;;8.65;5.93;;;3.80;99.90;;;;;;5059137;28;20089;-74
2022/12/08 12:12:43;;;;;;;8.68;6.03;;;3.80;99.90;;;;;;5060005;28;20059;-74
2022/12/08 12:15:29;;;;;;;9.02;6.63;;;3.90;99.90;;;;;;5069485;28;20135;-79
2022/12/08 12:18:22;;;;;;;8.75;6.30;;;3.90;99.90;;;;;;5058895;28;20097;-78
2022/12/08 12:21:05;;;;;;;10.73;6.15;;;3.90;99.90;;;;;;5060116;28;20078;-76
2022/12/08 12:23:48;;;;;;;9.32;6.35;;;3.90;99.90;;;;;;5063376;28;20044;-78
2022/12/08 12:26:23;;;;;;;11.38;6.60;;;3.90;99.90;;;;;;5087167;28;20052;-80
2022/12/08 12:29:13;;;;;;;10.32;6.07;;;3.80;99.90;;;;;;5062179;28;20519;-78
2022/12/08 12:31:46;;;;;;;10.82;6.55;;;3.80;99.90;;;;;;5062682;28;20527;-76
2022/12/08 12:34:28;;;;;;;10.68;6.75;;;3.80;99.90;;;;;;5072308;28;20044;-78
2022/12/08 12:37:04;;;;;;;10.02;6.60;;;3.90;99.90;;;;;;5065708;28;20048;-77
2022/12/08 12:39:33;;;;;;;11.85;7.25;;;3.80;99.90;;;;;;5066620;28;20474;-76
2022/12/08 12:42:01;;;;;;;11.88;6.70;;;3.80;99.90;;;;;;5097462;28;20040;-78
2022/12/08 12:44:27;;;;;;;10.48;6.72;;;3.90;99.90;;;;;;5066735;28;20037;-76
2022/12/08 12:46:58;;;;;;;9.35;6.40;;;3.90;99.90;;;;;;5062959;28;20057;-74
2022/12/08 12:49:42;;;;;;;9.32;6.80;;;4.00;99.90;;;;;;5073067;28;20499;-74
2022/12/08 12:52:14;;;;;;;11.75;6.45;;;4.00;99.90;;;;;;5063514;28;20120;-72
2022/12/08 12:54:49;;;;;;;11.00;6.90;;;4.10;99.90;;;;;;5060899;28;20040;-74
2022/12/08 12:57:18;;;;;;;10.13;7.18;;;4.10;99.90;;;;;;5067010;28;20517;-79
2022/12/08 13:00:16;;;;;;;10.65;6.90;;;4.20;99.90;;;;;;5067645;28;20056;-78
2022/12/08 13:02:50;;;;;;;9.50;6.93;;;4.20;99.90;;;;;;5066744;28;20085;-77
2022/12/08 13:05:25;;;;;;;11.02;6.88;;;4.30;99.90;;;;;;5057589;28;20052;-78
2022/12/08 13:07:54;;;;;;;8.95;6.40;;;4.30;99.90;;;;;;5061492;28;20052;-73
2022/12/08 13:10:32;;;;;;;10.38;6.90;;;4.30;99.90;;;;;;5070006;28;20147;-73
2022/12/08 13:13:09;;;;;;;10.60;7.18;;;4.40;99.90;;;;;;5051948;28;20046;-73
2022/12/08 13:15:46;;;;;;;11.07;7.80;;;4.40;99.90;;;;;;5063826;28;21712;-76